Time;durP1;ratioP1;P1;durP2;ratioP2;P2;SDS_P1;SDS_P2;PMS_P1;PMS_P2;Temp;Humidity;BMP_temperature;BMP_pressure;BME280_temperature;BME280_humidity;BME280_pressure;Samples;Min_cycle;Max_cycle;Signal;HPM_P1;HPM_P2
2023/11/17 00:00:05;;;;;;;;;;;;;;;2.36;61.02;95116.72;4971188;28;19953;-79
2023/11/17 00:02:30;;;;;;;;;;;;;;;2.99;61.27;95130.34;4974077;28;19926;-78
2023/11/17 00:04:56;;;;;;;;;;;;;;;3.66;57.44;95124.13;4977362;28;19918;-82
2023/11/17 00:07:21;;;;;;;;;;;;;;;3.96;58.64;95124.81;4969522;28;19922;-79
2023/11/17 00:09:46;;;;;;;;;;;;;;;4.20;57.35;95131.28;4980174;28;19938;-78
2023/11/17 00:12:12;;;;;;;;;;;;;;;4.28;54.31;95131.38;4976806;28;19929;-76
2023/11/17 00:14:38;;;;;;;;;;;;;;;4.35;56.00;95131.59;4976618;28;19995;-79
2023/11/17 00:17:03;;;;;;;;;;;;;;;4.29;56.31;95148.03;4975829;28;19918;-79
2023/11/17 00:19:28;;;;;;;;;;;;;;;4.29;53.63;95151.47;4975792;28;19937;-76
2023/11/17 00:21:54;;;;;;;;;;;;;;;4.19;53.77;95154.16;4977169;28;19952;-81
2023/11/17 00:24:19;;;;;;;;;;;;;;;4.27;53.59;95156.06;4982651;28;19930;-78
2023/11/17 00:26:44;;;;;;;;;;;;;;;4.03;53.12;95157.47;4973974;28;19949;-76
2023/11/17 00:29:10;;;;;;;;;;;;;;;3.78;53.99;95167.72;4977314;28;19926;-78
2023/11/17 00:31:35;;;;;;;;;;;;;;;3.94;53.48;95166.25;4973320;28;20455;-80
2023/11/17 00:34:00;;;;;;;;;;;;;;;3.83;53.54;95171.72;4975447;28;20067;-78
2023/11/17 00:36:26;;;;;;;;;;;;;;;3.77;53.61;95173.97;4972410;28;20700;-80
2023/11/17 00:38:51;;;;;;;;;;;;;;;3.89;53.96;95182.53;4972151;28;20320;-78
2023/11/17 00:41:16;;;;;;;;;;;;;;;3.73;54.33;95198.09;4977878;28;19967;-78
2023/11/17 00:43:41;;;;;;;;;;;;;;;3.60;54.50;95204.53;4980128;28;19926;-78
2023/11/17 00:46:07;;;;;;;;;;;;;;;3.68;54.38;95203.81;4980706;28;20029;-80
2023/11/17 00:48:32;;;;;;;;;;;;;;;3.42;54.87;95202.63;4978682;28;19925;-78
2023/11/17 00:50:58;;;;;;;;;;;;;;;3.45;54.98;95208.59;4979995;28;19925;-78
2023/11/17 00:53:23;;;;;;;;;;;;;;;3.51;54.69;95215.94;4979402;28;19932;-79
2023/11/17 00:55:49;;;;;;;;;;;;;;;3.26;55.58;95219.00;4975004;28;19925;-79
2023/11/17 00:58:14;;;;;;;;;;;;;;;3.65;54.75;95228.63;4963224;28;20454;-78
2023/11/17 01:00:40;;;;;;;;;;;;;;;3.65;54.27;95233.06;4978480;28;19925;-77
2023/11/17 01:03:05;;;;;;;;;;;;;;;3.24;56.25;95233.28;4973766;28;19926;-79
2023/11/17 01:05:30;;;;;;;;;;;;;;;3.64;54.51;95240.13;4980816;28;19937;-78
2023/11/17 01:07:56;;;;;;;;;;;;;;;3.60;55.03;95241.38;4978565;28;20025;-78
2023/11/17 01:10:22;;;;;;;;;;;;;;;3.46;55.79;95249.72;4979627;28;19921;-78
2023/11/17 01:12:47;;;;;;;;;;;;;;;3.72;54.90;95257.84;4979001;28;19963;-77
2023/11/17 01:15:13;;;;;;;;;;;;;;;3.59;54.48;95260.78;4979984;28;19957;-76
2023/11/17 01:17:39;;;;;;;;;;;;;;;3.68;54.78;95259.91;4973798;28;19933;-78
2023/11/17 01:20:05;;;;;;;;;;;;;;;3.42;55.46;95268.44;4973849;28;20585;-78
2023/11/17 01:22:30;;;;;;;;;;;;;;;3.66;54.83;95276.84;4977545;28;20538;-77
2023/11/17 01:24:56;;;;;;;;;;;;;;;3.42;55.45;95273.69;4970077;28;20024;-77
2023/11/17 01:27:21;;;;;;;;;;;;;;;2.97;57.68;95276.91;4974085;28;20473;-80
2023/11/17 01:29:46;;;;;;;;;;;;;;;2.98;57.12;95275.94;4978330;28;19928;-79
2023/11/17 01:32:11;;;;;;;;;;;;;;;2.72;57.25;95284.38;4969087;28;19948;-78
2023/11/17 01:34:37;;;;;;;;;;;;;;;2.43;58.73;95301.75;4975573;28;19918;-79
2023/11/17 01:37:02;;;;;;;;;;;;;;;2.44;58.81;95297.31;4978889;28;20043;-80
2023/11/17 01:39:27;;;;;;;;;;;;;;;2.40;58.08;95296.75;4978221;28;19928;-77
2023/11/17 01:41:52;;;;;;;;;;;;;;;2.50;57.71;95302.03;4975361;28;20013;-78
2023/11/17 01:44:20;;;;;;;;;;;;;;;2.27;58.67;95307.50;4976786;28;19965;-78
2023/11/17 01:46:46;;;;;;;;;;;;;;;2.02;59.00;95296.50;4978937;28;19966;-77
2023/11/17 01:49:12;;;;;;;;;;;;;;;2.34;59.42;95292.03;4977974;28;20020;-78
2023/11/17 01:51:38;;;;;;;;;;;;;;;2.30;58.81;95296.75;4977887;28;19980;-77
2023/11/17 01:54:03;;;;;;;;;;;;;;;2.35;58.20;95305.03;4977809;28;19956;-78
2023/11/17 01:56:29;;;;;;;;;;;;;;;2.16;58.09;95308.44;4977279;28;19925;-80
2023/11/17 01:58:54;;;;;;;;;;;;;;;1.72;59.87;95308.66;4968039;28;19998;-78
2023/11/17 02:01:20;;;;;;;;;;;;;;;1.59;59.25;95312.31;4973612;28;19943;-78
2023/11/17 02:03:45;;;;;;;;;;;;;;;1.39;59.87;95313.97;4990248;28;20047;-79
2023/11/17 02:06:22;;;;;;;;;;;;;;;1.06;60.80;95319.25;4979043;28;20227;-78
2023/11/17 02:08:57;;;;;;;;;;;;;;;1.14;60.58;95336.13;4972312;28;19957;-77
2023/11/17 02:11:37;;;;;;;;;;;;;;;0.81;61.28;95336.97;4971733;28;20015;-77
2023/11/17 02:14:06;;;;;;;;;;;;;;;0.68;62.01;95342.38;4973273;28;19932;-78
2023/11/17 02:16:33;;;;;;;;;;;;;;;0.48;62.31;95346.56;4977221;28;20469;-78
2023/11/17 02:18:59;;;;;;;;;;;;;;;0.46;63.21;95346.72;4957700;28;20486;-80
2023/11/17 02:21:29;;;;;;;;;;;;;;;0.57;62.62;95351.09;4977301;28;19936;-78
2023/11/17 02:23:54;;;;;;;;;;;;;;;0.22;62.74;95354.69;4977407;28;19960;-79
2023/11/17 02:26:42;;;;;;;;;;;;;;;0.29;62.93;95360.28;4977280;28;20431;-78
2023/11/17 02:29:10;;;;;;;;;;;;;;;0.46;63.40;95354.56;4973588;28;20681;-78
2023/11/17 02:31:35;;;;;;;;;;;;;;;0.64;62.33;95358.44;4960046;28;19967;-79
2023/11/17 02:34:04;;;;;;;;;;;;;;;0.74;61.87;95356.75;4977239;28;19983;-79
2023/11/17 02:36:32;;;;;;;;;;;;;;;0.79;61.26;95351.16;4960011;28;19971;-78
2023/11/17 02:38:58;;;;;;;;;;;;;;;0.91;59.57;95358.03;4976418;28;19962;-78
2023/11/17 02:41:29;;;;;;;;;;;;;;;1.32;58.75;95362.63;4978952;28;19932;-81
2023/11/17 02:43:59;;;;;;;;;;;;;;;1.11;59.52;95356.44;4976540;28;19983;-78
2023/11/17 02:46:26;;;;;;;;;;;;;;;0.96;59.36;95362.91;4976357;28;19978;-80
2023/11/17 02:48:51;;;;;;;;;;;;;;;1.04;59.02;95362.28;4975192;28;20068;-79
2023/11/17 02:51:20;;;;;;;;;;;;;;;0.69;60.07;95372.03;4978089;28;20059;-79
2023/11/17 02:53:49;;;;;;;;;;;;;;;0.68;60.56;95367.75;4974146;28;20449;-78
2023/11/17 02:56:18;;;;;;;;;;;;;;;0.83;59.80;95369.16;4960910;28;20589;-80
2023/11/17 02:58:43;;;;;;;;;;;;;;;1.02;59.76;95375.50;4959011;28;19961;-77
2023/11/17 03:01:08;;;;;;;;;;;;;;;1.00;62.94;95385.31;4976383;28;19944;-80
2023/11/17 03:03:33;;;;;;;;;;;;;;;1.25;58.97;95391.16;4976175;28;19956;-78
2023/11/17 03:05:59;;;;;;;;;;;;;;;1.37;59.09;95389.34;4978323;28;19936;-80
2023/11/17 03:08:25;;;;;;;;;;;;;;;1.61;58.28;95394.38;4974537;28;20027;-79
2023/11/17 03:10:50;;;;;;;;;;;;;;;1.44;57.79;95395.75;4976031;28;20456;-78
2023/11/17 03:13:16;;;;;;;;;;;;;;;1.78;57.95;95402.66;4975860;28;19999;-77
2023/11/17 03:15:41;;;;;;;;;;;;;;;1.51;58.15;95409.19;4976355;28;19963;-78
2023/11/17 03:18:09;;;;;;;;;;;;;;;1.54;58.10;95410.75;4975645;28;19999;-78
2023/11/17 03:20:34;;;;;;;;;;;;;;;1.41;58.03;95406.50;4977298;28;20129;-77
2023/11/17 03:23:00;;;;;;;;;;;;;;;1.10;58.86;95415.06;4976334;28;20072;-78
2023/11/17 03:25:26;;;;;;;;;;;;;;;1.28;57.84;95427.66;4975663;28;19936;-77
2023/11/17 03:27:51;;;;;;;;;;;;;;;1.33;58.55;95419.41;4975309;28;20062;-77
2023/11/17 03:30:19;;;;;;;;;;;;;;;1.47;57.21;95423.53;4976893;28;19921;-77
2023/11/17 03:32:45;;;;;;;;;;;;;;;1.13;58.42;95439.38;4971432;28;20020;-79
2023/11/17 03:35:10;;;;;;;;;;;;;;;0.93;61.14;95439.19;4975910;28;19963;-79
2023/11/17 03:37:35;;;;;;;;;;;;;;;0.94;59.32;95430.34;4970861;28;20042;-78
2023/11/17 03:40:07;;;;;;;;;;;;;;;0.78;59.81;95442.06;4972482;28;19971;-79
2023/11/17 03:42:32;;;;;;;;;;;;;;;0.77;59.07;95440.41;4973765;28;20360;-78
2023/11/17 03:44:58;;;;;;;;;;;;;;;0.74;58.89;95438.00;4974905;28;19932;-77
2023/11/17 03:47:23;;;;;;;;;;;;;;;0.47;60.78;95431.34;4977253;28;20376;-78
2023/11/17 03:49:48;;;;;;;;;;;;;;;0.54;61.20;95434.31;4978050;28;20000;-78
2023/11/17 03:52:14;;;;;;;;;;;;;;;0.62;60.21;95431.13;4976046;28;20009;-77
2023/11/17 03:54:39;;;;;;;;;;;;;;;0.77;59.06;95429.91;4977771;28;20089;-77
2023/11/17 03:57:05;;;;;;;;;;;;;;;0.68;58.88;95435.88;4975368;28;19957;-79
2023/11/17 03:59:30;;;;;;;;;;;;;;;0.80;58.76;95444.56;4977663;28;19956;-77
2023/11/17 04:01:55;;;;;;;;;;;;;;;0.80;58.33;95440.16;4975219;28;19945;-77
2023/11/17 04:04:20;;;;;;;;;;;;;;;0.62;58.62;95449.47;4975771;28;19964;-76
2023/11/17 04:06:52;;;;;;;;;;;;;;;0.31;60.41;95443.00;4976408;28;20724;-75
2023/11/17 04:09:24;;;;;;;;;;;;;;;0.12;59.72;95446.22;4969979;28;20029;-76
2023/11/17 04:11:50;;;;;;;;;;;;;;;0.38;60.10;95450.41;4977641;28;19969;-75
2023/11/17 04:14:15;;;;;;;;;;;;;;;0.17;60.65;95453.75;4976659;28;20587;-75
2023/11/17 04:16:40;;;;;;;;;;;;;;;0.12;62.13;95453.22;4977764;28;20071;-76
2023/11/17 04:19:06;;;;;;;;;;;;;;;0.29;60.77;95452.78;4977972;28;20522;-75
2023/11/17 04:21:31;;;;;;;;;;;;;;;0.49;59.98;95452.19;4978086;28;19991;-74
2023/11/17 04:23:56;;;;;;;;;;;;;;;0.38;62.81;95445.16;4979437;28;20058;-76
2023/11/17 04:26:21;;;;;;;;;;;;;;;0.53;60.59;95453.63;4977529;28;20028;-75
2023/11/17 04:28:47;;;;;;;;;;;;;;;0.73;60.23;95449.47;4980220;28;19958;-76
2023/11/17 04:31:13;;;;;;;;;;;;;;;0.96;60.18;95445.00;4974059;28;19965;-75
2023/11/17 04:33:38;;;;;;;;;;;;;;;0.77;60.59;95450.88;4979630;28;20049;-75
2023/11/17 04:36:03;;;;;;;;;;;;;;;0.95;59.31;95458.22;4975555;28;19963;-76
2023/11/17 04:38:30;;;;;;;;;;;;;;;0.96;57.36;95459.91;4979156;28;19976;-74
2023/11/17 04:40:55;;;;;;;;;;;;;;;0.70;57.77;95460.16;4978036;28;19921;-75
2023/11/17 04:43:20;;;;;;;;;;;;;;;0.81;57.54;95454.94;4976294;28;19964;-75
2023/11/17 04:45:47;;;;;;;;;;;;;;;0.77;57.80;95450.88;4980374;28;19935;-74
2023/11/17 04:48:13;;;;;;;;;;;;;;;1.30;58.19;95454.56;4974781;28;19952;-76
2023/11/17 04:50:39;;;;;;;;;;;;;;;1.47;57.08;95462.91;4980815;28;20040;-74
2023/11/17 04:53:05;;;;;;;;;;;;;;;1.72;56.66;95450.41;4978066;28;20459;-75
2023/11/17 04:55:30;;;;;;;;;;;;;;;1.84;54.82;95454.63;4979812;28;20630;-75
2023/11/17 04:57:55;;;;;;;;;;;;;;;1.53;55.09;95459.78;4976621;28;19971;-76
2023/11/17 05:00:21;;;;;;;;;;;;;;;1.60;54.81;95463.56;4978114;28;20430;-74
2023/11/17 05:02:47;;;;;;;;;;;;;;;1.67;54.42;95470.97;4978672;28;20021;-74
2023/11/17 05:05:12;;;;;;;;;;;;;;;1.57;54.49;95466.44;4980672;28;20044;-75
2023/11/17 05:07:43;;;;;;;;;;;;;;;1.07;56.63;95473.00;4979016;28;20051;-76
2023/11/17 05:10:09;;;;;;;;;;;;;;;1.08;56.75;95468.59;4979952;28;19958;-75
2023/11/17 05:12:34;;;;;;;;;;;;;;;1.23;55.53;95474.41;4980620;28;19958;-76
2023/11/17 05:15:00;;;;;;;;;;;;;;;1.03;57.04;95474.22;4979307;28;19960;-76
2023/11/17 05:17:29;;;;;;;;;;;;;;;0.97;56.82;95477.31;4980997;28;20044;-75
2023/11/17 05:19:56;;;;;;;;;;;;;;;1.09;56.99;95475.50;4979556;28;19956;-76
2023/11/17 05:22:22;;;;;;;;;;;;;;;1.19;57.11;95470.38;4978221;28;20508;-76
2023/11/17 05:24:48;;;;;;;;;;;;;;;0.88;57.97;95480.66;4979915;28;20390;-75
2023/11/17 05:27:14;;;;;;;;;;;;;;;0.75;57.97;95480.78;4978568;28;19991;-75
2023/11/17 05:29:39;;;;;;;;;;;;;;;0.72;58.70;95480.06;4979019;28;20436;-75
2023/11/17 05:32:04;;;;;;;;;;;;;;;0.75;58.61;95484.22;4978396;28;19937;-76
2023/11/17 05:34:29;;;;;;;;;;;;;;;0.97;57.63;95483.41;4978719;28;20033;-75
2023/11/17 05:36:55;;;;;;;;;;;;;;;1.43;55.53;95492.97;4980087;28;19962;-76
2023/11/17 05:39:20;;;;;;;;;;;;;;;1.43;55.28;95495.59;4978524;28;19955;-75
2023/11/17 05:41:46;;;;;;;;;;;;;;;1.22;55.71;95496.31;4979288;28;20007;-75
2023/11/17 05:44:12;;;;;;;;;;;;;;;1.29;55.71;95492.25;4974376;28;20484;-77
2023/11/17 05:46:37;;;;;;;;;;;;;;;1.23;56.45;95490.97;4978078;28;19942;-75
2023/11/17 05:49:04;;;;;;;;;;;;;;;1.34;56.86;95495.38;4980145;28;19928;-75
2023/11/17 05:51:29;;;;;;;;;;;;;;;1.22;57.04;95493.72;4974543;28;20012;-75
2023/11/17 05:53:54;;;;;;;;;;;;;;;0.96;57.62;95497.44;4979741;28;19986;-76
2023/11/17 05:56:20;;;;;;;;;;;;;;;1.06;57.42;95497.53;4979821;28;19967;-76
2023/11/17 05:58:45;;;;;;;;;;;;;;;0.92;59.09;95503.06;4979330;28;19933;-76
2023/11/17 06:01:13;;;;;;;;;;;;;;;0.93;58.57;95502.94;4972270;28;19949;-76
2023/11/17 06:03:38;;;;;;;;;;;;;;;0.91;59.25;95504.84;4972997;28;20050;-75
2023/11/17 06:06:04;;;;;;;;;;;;;;;0.69;59.45;95503.88;4978877;28;19942;-74
2023/11/17 06:08:31;;;;;;;;;;;;;;;0.97;58.71;95507.00;4979060;28;20082;-74
2023/11/17 06:10:57;;;;;;;;;;;;;;;0.86;58.91;95520.09;4979147;28;19968;-76
2023/11/17 06:13:24;;;;;;;;;;;;;;;0.62;59.16;95520.22;4979640;28;19942;-76
2023/11/17 06:15:49;;;;;;;;;;;;;;;0.51;58.95;95529.72;4978657;28;20658;-77
2023/11/17 06:18:16;;;;;;;;;;;;;;;0.46;59.44;95530.09;4979592;28;19992;-76
2023/11/17 06:20:41;;;;;;;;;;;;;;;0.26;60.08;95531.59;4978103;28;19983;-76
2023/11/17 06:23:08;;;;;;;;;;;;;;;0.17;60.43;95537.53;4976988;28;20415;-80
2023/11/17 06:25:33;;;;;;;;;;;;;;;0.39;60.21;95531.50;4978398;28;19940;-77
2023/11/17 06:27:59;;;;;;;;;;;;;;;0.38;60.36;95529.81;4978239;28;20369;-82
2023/11/17 06:30:24;;;;;;;;;;;;;;;0.62;60.24;95534.16;4977776;28;19938;-77
2023/11/17 06:32:49;;;;;;;;;;;;;;;0.72;59.66;95531.66;4977312;28;19949;-77
2023/11/17 06:35:15;;;;;;;;;;;;;;;0.63;59.57;95538.44;4978828;28;20282;-81
2023/11/17 06:37:41;;;;;;;;;;;;;;;0.58;60.19;95536.16;4977893;28;19977;-81
2023/11/17 06:40:09;;;;;;;;;;;;;;;0.38;60.97;95545.53;4976801;28;19926;-80
2023/11/17 06:42:34;;;;;;;;;;;;;;;0.77;60.06;95544.38;4977575;28;20003;-82
2023/11/17 06:45:00;;;;;;;;;;;;;;;0.69;60.00;95539.75;4978283;28;20016;-79
2023/11/17 06:47:26;;;;;;;;;;;;;;;0.41;60.81;95547.91;4978214;28;20599;-81
2023/11/17 06:49:51;;;;;;;;;;;;;;;0.67;59.16;95544.25;4978877;28;20151;-80
2023/11/17 06:52:16;;;;;;;;;;;;;;;0.85;59.03;95547.25;4976500;28;20636;-79
2023/11/17 06:54:43;;;;;;;;;;;;;;;0.71;60.09;95551.78;4977955;28;20392;-78
2023/11/17 06:57:08;;;;;;;;;;;;;;;0.91;58.90;95556.44;4978440;28;20454;-79
2023/11/17 06:59:34;;;;;;;;;;;;;;;0.80;58.78;95550.25;4977372;28;20336;-79
2023/11/17 07:02:00;;;;;;;;;;;;;;;0.65;59.69;95551.44;4977213;28;19936;-76
2023/11/17 07:04:25;;;;;;;;;;;;;;;0.68;60.57;95553.81;4976948;28;19922;-77
2023/11/17 07:06:52;;;;;;;;;;;;;;;0.82;59.24;95558.81;4973120;28;20440;-80
2023/11/17 07:09:19;;;;;;;;;;;;;;;0.98;59.19;95562.88;4976179;28;20670;-78
2023/11/17 07:11:45;;;;;;;;;;;;;;;0.76;59.09;95561.06;4976118;28;19987;-82
2023/11/17 07:14:11;;;;;;;;;;;;;;;1.01;58.76;95565.25;4976933;28;20790;-80
2023/11/17 07:16:37;;;;;;;;;;;;;;;1.40;57.50;95561.41;4973229;28;20159;-81
2023/11/17 07:19:02;;;;;;;;;;;;;;;1.42;58.81;95567.34;4980309;28;19968;-80
2023/11/17 07:21:27;;;;;;;;;;;;;;;1.34;59.05;95570.59;4974275;28;19960;-71
2023/11/17 07:23:52;;;;;;;;;;;;;;;1.14;58.10;95573.00;4983365;28;19925;-70
2023/11/17 07:26:18;;;;;;;;;;;;;;;1.62;57.70;95576.31;4980694;28;20020;-70
2023/11/17 07:28:46;;;;;;;;;;;;;;;1.16;58.23;95576.31;4983726;28;19961;-70
2023/11/17 07:31:11;;;;;;;;;;;;;;;1.14;58.65;95587.91;4985790;28;20384;-71
2023/11/17 07:33:37;;;;;;;;;;;;;;;1.30;57.77;95587.53;4979509;28;19956;-70
2023/11/17 07:36:03;;;;;;;;;;;;;;;1.48;56.24;95591.34;4974864;28;20135;-70
2023/11/17 07:38:29;;;;;;;;;;;;;;;1.82;56.37;95587.00;4972083;28;20030;-71
2023/11/17 07:40:54;;;;;;;;;;;;;;;1.71;57.57;95593.13;4973696;28;20386;-69
2023/11/17 07:43:19;;;;;;;;;;;;;;;2.00;57.67;95590.75;4976248;28;19926;-70
2023/11/17 07:45:44;;;;;;;;;;;;;;;2.19;56.03;95593.69;4977421;28;20027;-70
2023/11/17 07:48:11;;;;;;;;;;;;;;;2.27;54.48;95596.50;4977433;28;20011;-70
2023/11/17 07:50:38;;;;;;;;;;;;;;;2.38;57.02;95585.09;4977067;28;19926;-71
2023/11/17 07:53:04;;;;;;;;;;;;;;;2.50;55.72;95588.50;4985702;28;19926;-70
2023/11/17 07:55:31;;;;;;;;;;;;;;;2.67;55.36;95591.50;4980115;28;19980;-71
2023/11/17 07:57:57;;;;;;;;;;;;;;;2.67;56.48;95594.16;4988111;28;20428;-71
2023/11/17 08:00:27;;;;;;;;;;;;;;;2.84;56.81;95598.00;4985178;28;19973;-71
2023/11/17 08:02:52;;;;;;;;;;;;;;;3.00;54.66;95593.09;4991158;28;20502;-69
2023/11/17 08:05:19;;;;;;;;;;;;;;;3.00;63.89;95608.88;4988629;28;20180;-69
2023/11/17 08:07:45;;;;;;;;;;;;;;;3.12;65.75;95600.88;4986488;28;19925;-71
2023/11/17 08:10:10;;;;;;;;;;;;;;;3.48;61.21;95604.00;4986412;28;20306;-70
2023/11/17 08:12:36;;;;;;;;;;;;;;;3.68;57.31;95599.59;4983465;28;19930;-70
2023/11/17 08:15:04;;;;;;;;;;;;;;;3.91;58.67;95596.72;4986144;28;19960;-70
2023/11/17 08:17:31;;;;;;;;;;;;;;;3.88;60.17;95598.81;4987448;28;19985;-70
2023/11/17 08:19:56;;;;;;;;;;;;;;;4.10;56.05;95600.38;4987187;28;20032;-71
2023/11/17 08:22:22;;;;;;;;;;;;;;;4.17;61.88;95609.38;4989522;28;20370;-69
2023/11/17 08:24:47;;;;;;;;;;;;;;;4.44;56.68;95614.94;4984052;28;20414;-71
2023/11/17 08:27:14;;;;;;;;;;;;;;;4.31;54.52;95609.94;4985124;28;19934;-70
2023/11/17 08:29:39;;;;;;;;;;;;;;;4.61;51.30;95612.56;4985415;28;20101;-71
2023/11/17 08:32:04;;;;;;;;;;;;;;;4.60;52.44;95610.91;4986335;28;20350;-70
2023/11/17 08:34:31;;;;;;;;;;;;;;;4.33;54.62;95615.91;4984917;28;19927;-71
2023/11/17 08:36:58;;;;;;;;;;;;;;;4.48;53.66;95615.47;4984112;28;19961;-69
2023/11/17 08:39:26;;;;;;;;;;;;;;;4.56;56.50;95613.81;4983506;28;19925;-71
2023/11/17 08:41:57;;;;;;;;;;;;;;;4.72;56.57;95617.66;4985469;28;19922;-71
2023/11/17 08:44:22;;;;;;;;;;;;;;;4.67;52.57;95617.28;4985384;28;20823;-70
2023/11/17 08:46:49;;;;;;;;;;;;;;;4.89;57.38;95626.69;4987474;28;20012;-70
2023/11/17 08:49:15;;;;;;;;;;;;;;;4.98;53.51;95617.09;4989006;28;19926;-70
2023/11/17 08:51:41;;;;;;;;;;;;;;;5.00;50.30;95619.59;4985570;28;20404;-70
2023/11/17 08:54:06;;;;;;;;;;;;;;;5.16;51.81;95619.84;4983671;28;19926;-70
2023/11/17 08:56:33;;;;;;;;;;;;;;;5.37;54.79;95628.53;4986668;28;20546;-70
2023/11/17 08:58:58;;;;;;;;;;;;;;;4.91;47.31;95623.91;4984365;28;20036;-69
2023/11/17 09:01:23;;;;;;;;;;;;;;;5.15;50.00;95626.09;4982424;28;19929;-70
2023/11/17 09:03:49;;;;;;;;;;;;;;;5.53;48.42;95625.25;4981665;28;20136;-70
2023/11/17 09:06:15;;;;;;;;;;;;;;;3.91;49.67;95630.97;4981977;28;19930;-70
2023/11/17 09:08:40;;;;;;;;;;;;;;;4.88;48.42;95630.28;4985043;28;19930;-70
2023/11/17 09:11:08;;;;;;;;;;;;;;;5.34;49.55;95627.00;4985792;28;19936;-70
2023/11/17 09:13:33;;;;;;;;;;;;;;;5.56;51.12;95632.88;4985513;28;19959;-70
2023/11/17 09:15:58;;;;;;;;;;;;;;;3.85;49.51;95644.69;4984152;28;19929;-70
2023/11/17 09:18:24;;;;;;;;;;;;;;;4.41;50.20;95642.41;4986201;28;19972;-70
2023/11/17 09:20:49;;;;;;;;;;;;;;;3.59;50.76;95653.06;4985295;28;20294;-70
2023/11/17 09:23:14;;;;;;;;;;;;;;;4.57;51.26;95649.78;4984929;28;19986;-69
2023/11/17 09:25:39;;;;;;;;;;;;;;;5.28;49.50;95646.91;4985046;28;20090;-70
2023/11/17 09:28:06;;;;;;;;;;;;;;;5.24;47.77;95653.44;4983664;28;20017;-70
2023/11/17 09:30:32;;;;;;;;;;;;;;;4.93;46.99;95664.19;4982261;28;19936;-70
2023/11/17 09:32:58;;;;;;;;;;;;;;;4.45;49.05;95659.63;4983567;28;20275;-70
2023/11/17 09:35:25;;;;;;;;;;;;;;;4.52;48.50;95662.53;4984433;28;19925;-70
2023/11/17 09:37:58;;;;;;;;;;;;;;;5.04;48.18;95650.78;4982119;28;20602;-70
2023/11/17 09:40:24;;;;;;;;;;;;;;;4.67;47.48;95657.69;4984741;28;19971;-70
2023/11/17 09:42:53;;;;;;;;;;;;;;;5.01;46.87;95651.09;4985334;28;19922;-70
2023/11/17 09:45:19;;;;;;;;;;;;;;;4.60;47.32;95663.63;4984379;28;20571;-70
2023/11/17 09:47:46;;;;;;;;;;;;;;;5.25;46.63;95656.91;4985433;28;20009;-70
2023/11/17 09:50:11;;;;;;;;;;;;;;;5.96;46.23;95647.53;4984597;28;19933;-70
2023/11/17 09:52:37;;;;;;;;;;;;;;;6.03;45.54;95654.91;4984515;28;19965;-70
2023/11/17 09:55:02;;;;;;;;;;;;;;;6.47;44.42;95656.84;4985596;28;20466;-70
2023/11/17 09:57:29;;;;;;;;;;;;;;;6.51;42.78;95658.22;4985380;28;19932;-70
2023/11/17 09:59:55;;;;;;;;;;;;;;;6.19;42.99;95654.25;4980885;28;19968;-70
2023/11/17 10:02:20;;;;;;;;;;;;;;;4.82;46.69;95665.16;4983651;28;19965;-70
2023/11/17 10:04:46;;;;;;;;;;;;;;;5.33;46.08;95655.22;4984541;28;19928;-70
2023/11/17 10:07:11;;;;;;;;;;;;;;;5.30;44.75;95654.66;4983746;28;19937;-70
2023/11/17 10:09:37;;;;;;;;;;;;;;;5.49;45.91;95651.13;4983439;28;20000;-70
2023/11/17 10:12:04;;;;;;;;;;;;;;;6.26;49.25;95655.31;4981067;28;19929;-70
2023/11/17 10:14:29;;;;;;;;;;;;;;;5.97;43.04;95659.81;4983930;28;19918;-69
2023/11/17 10:16:55;;;;;;;;;;;;;;;6.39;44.75;95670.78;4984791;28;20375;-70
2023/11/17 10:19:20;;;;;;;;;;;;;;;7.02;42.25;95663.78;4983476;28;20460;-70
2023/11/17 10:21:46;;;;;;;;;;;;;;;7.50;43.79;95663.41;4983693;28;19921;-70
2023/11/17 10:24:11;;;;;;;;;;;;;;;7.13;42.24;95661.84;4985512;28;19930;-69
2023/11/17 10:26:36;;;;;;;;;;;;;;;7.30;42.57;95669.88;4979107;28;19937;-69
2023/11/17 10:29:05;;;;;;;;;;;;;;;7.17;43.93;95668.50;4982482;28;19922;-69
2023/11/17 10:31:31;;;;;;;;;;;;;;;7.27;41.70;95671.03;4983536;28;19934;-69
2023/11/17 10:33:57;;;;;;;;;;;;;;;5.64;44.23;95672.59;4982774;28;19921;-69
2023/11/17 10:36:23;;;;;;;;;;;;;;;6.59;43.68;95673.31;4977330;28;19926;-69
2023/11/17 10:38:59;;;;;;;;;;;;;;;6.43;44.09;95677.44;4981661;28;20020;-69
2023/11/17 10:41:30;;;;;;;;;;;;;;;6.43;43.48;95677.44;4985214;28;19921;-69
2023/11/17 10:43:58;;;;;;;;;;;;;;;6.34;43.66;95675.72;4973671;28;20410;-69
2023/11/17 10:46:35;;;;;;;;;;;;;;;6.12;43.60;95675.13;4971662;28;20322;-69
2023/11/17 10:49:01;;;;;;;;;;;;;;;6.08;43.39;95682.56;4977042;28;19928;-69
2023/11/17 10:51:26;;;;;;;;;;;;;;;5.84;45.46;95680.44;4982028;28;19929;-69
2023/11/17 10:54:04;;;;;;;;;;;;;;;6.14;43.99;95683.78;4982361;28;19921;-69
2023/11/17 10:56:29;;;;;;;;;;;;;;;6.24;44.02;95678.41;4982966;28;19933;-69
2023/11/17 10:58:55;;;;;;;;;;;;;;;6.41;43.57;95674.13;4977830;28;20319;-69
2023/11/17 11:01:21;;;;;;;;;;;;;;;6.44;47.05;95675.66;4983129;28;19930;-70
2023/11/17 11:03:46;;;;;;;;;;;;;;;6.33;44.80;95672.22;4977664;28;19929;-70
2023/11/17 11:06:13;;;;;;;;;;;;;;;7.23;42.15;95673.19;4987184;28;20035;-70
2023/11/17 11:08:40;;;;;;;;;;;;;;;7.40;41.83;95671.47;4981540;28;19926;-70
2023/11/17 11:11:05;;;;;;;;;;;;;;;7.47;41.93;95674.31;4981954;28;19937;-69
2023/11/17 11:13:30;;;;;;;;;;;;;;;7.24;40.05;95672.19;4980408;28;19980;-69
2023/11/17 11:16:00;;;;;;;;;;;;;;;7.17;40.49;95671.13;4981488;28;20973;-69
2023/11/17 11:18:25;;;;;;;;;;;;;;;6.41;42.59;95668.84;4979811;28;20636;-69
2023/11/17 11:20:50;;;;;;;;;;;;;;;6.51;42.86;95666.16;4984372;28;19937;-69
2023/11/17 11:23:15;;;;;;;;;;;;;;;5.58;44.34;95668.72;4979554;28;19929;-69
2023/11/17 11:25:41;;;;;;;;;;;;;;;5.63;44.40;95673.59;4977511;28;20339;-68
2023/11/17 11:28:08;;;;;;;;;;;;;;;5.27;45.83;95673.44;4975739;28;20401;-68
2023/11/17 11:30:33;;;;;;;;;;;;;;;5.59;45.49;95670.41;4976480;28;19925;-69
2023/11/17 11:32:59;;;;;;;;;;;;;;;5.48;45.42;95671.41;4978013;28;19983;-69
2023/11/17 11:35:24;;;;;;;;;;;;;;;5.44;45.55;95680.59;4977577;28;19977;-68
2023/11/17 11:37:52;;;;;;;;;;;;;;;4.93;47.41;95683.47;4979062;28;20100;-68
2023/11/17 11:40:17;;;;;;;;;;;;;;;4.90;46.51;95673.19;4980993;28;19926;-69
2023/11/17 11:42:42;;;;;;;;;;;;;;;4.89;50.74;95674.16;4977086;28;20437;-69
2023/11/17 11:45:16;;;;;;;;;;;;;;;5.42;46.55;95676.44;4975071;28;20523;-68
2023/11/17 11:47:41;;;;;;;;;;;;;;;5.70;48.69;95669.41;4975635;28;20399;-69
2023/11/17 11:50:07;;;;;;;;;;;;;;;5.68;46.84;95673.16;4975377;28;19924;-69
2023/11/17 11:52:38;;;;;;;;;;;;;;;5.92;46.55;95666.50;4976344;28;19999;-69
2023/11/17 11:55:06;;;;;;;;;;;;;;;6.04;48.17;95669.75;4976837;28;20024;-69
2023/11/17 11:57:33;;;;;;;;;;;;;;;6.01;45.52;95678.84;4973634;28;20457;-68
2023/11/17 12:00:06;;;;;;;;;;;;;;;6.03;45.93;95678.69;4972945;28;19928;-69
2023/11/17 12:02:31;;;;;;;;;;;;;;;4.81;48.66;95685.44;4977030;28;20411;-69
2023/11/17 12:04:59;;;;;;;;;;;;;;;5.48;49.38;95679.34;4979187;28;20065;-69
2023/11/17 12:07:35;;;;;;;;;;;;;;;5.90;45.75;95681.66;4975689;28;19991;-69
2023/11/17 12:10:01;;;;;;;;;;;;;;;5.94;46.04;95683.03;4966109;28;19952;-68
2023/11/17 12:12:27;;;;;;;;;;;;;;;5.98;46.57;95687.03;4975761;28;19926;-69
2023/11/17 12:14:52;;;;;;;;;;;;;;;6.07;48.51;95672.13;4972869;28;19947;-69
2023/11/17 12:17:18;;;;;;;;;;;;;;;6.05;47.82;95674.09;4980083;28;20307;-69
2023/11/17 12:19:45;;;;;;;;;;;;;;;6.27;48.34;95682.56;4981374;28;19925;-69
2023/11/17 12:22:10;;;;;;;;;;;;;;;6.05;47.84;95674.09;4980541;28;19988;-69
2023/11/17 12:24:37;;;;;;;;;;;;;;;6.05;49.99;95679.38;4979253;28;19964;-69
2023/11/17 12:27:04;;;;;;;;;;;;;;;6.11;47.49;95687.53;4976050;28;19930;-69
2023/11/17 12:29:31;;;;;;;;;;;;;;;5.83;48.69;95694.66;4979937;28;19961;-69
2023/11/17 12:31:59;;;;;;;;;;;;;;;5.56;49.79;95686.56;4979345;28;19980;-70
2023/11/17 12:34:25;;;;;;;;;;;;;;;5.38;48.97;95694.41;4983858;28;20445;-69
2023/11/17 12:36:53;;;;;;;;;;;;;;;5.55;49.30;95694.63;4982648;28;19948;-68
2023/11/17 12:39:20;;;;;;;;;;;;;;;5.57;51.42;95698.78;4983120;28;19933;-69
2023/11/17 12:41:46;;;;;;;;;;;;;;;4.74;50.42;95701.94;4986416;28;19933;-69
2023/11/17 12:44:16;;;;;;;;;;;;;;;5.01;50.37;95705.69;4985125;28;19936;-68
2023/11/17 12:46:42;;;;;;;;;;;;;;;5.24;51.38;95702.75;4986746;28;20644;-69
2023/11/17 12:49:08;;;;;;;;;;;;;;;5.32;50.00;95705.50;4983658;28;19997;-69
2023/11/17 12:51:34;;;;;;;;;;;;;;;5.47;52.06;95708.53;4984571;28;19930;-69